sensor_id;sensor_type;location;lat;lon;timestamp;P1;durP1;ratioP1;P2;durP2;ratioP2
36833;SDS011;48003;52.084;5.224;2023-01-29T00:01:31;25.0;;;17.3;;
36833;SDS011;48003;52.084;5.224;2023-01-29T00:03:08;26.8;;;18.11;;
36833;SDS011;48003;52.084;5.224;2023-01-29T00:04:44;23.4;;;16.8;;
36833;SDS011;48003;52.084;5.224;2023-01-29T00:08:00;22.7;;;17.11;;
36833;SDS011;48003;52.084;5.224;2023-01-29T00:09:37;23.7;;;17.41;;
36833;SDS011;48003;52.084;5.224;2023-01-29T00:11:15;30.4;;;20.5;;
36833;SDS011;48003;52.084;5.224;2023-01-29T00:14:29;26.9;;;19.0;;
36833;SDS011;48003;52.084;5.224;2023-01-29T00:16:05;26.0;;;19.11;;
36833;SDS011;48003;52.084;5.224;2023-01-29T00:17:42;23.8;;;17.11;;
36833;SDS011;48003;52.084;5.224;2023-01-29T00:19:20;21.0;;;16.5;;
36833;SDS011;48003;52.084;5.224;2023-01-29T00:22:34;24.1;;;17.2;;
36833;SDS011;48003;52.084;5.224;2023-01-29T00:24:10;23.8;;;16.8;;
36833;SDS011;48003;52.084;5.224;2023-01-29T00:25:47;24.7;;;18.3;;
36833;SDS011;48003;52.084;5.224;2023-01-29T00:29:01;24.8;;;18.0;;
36833;SDS011;48003;52.084;5.224;2023-01-29T00:30:38;24.3;;;17.8;;
36833;SDS011;48003;52.084;5.224;2023-01-29T00:32:15;25.9;;;18.3;;
36833;SDS011;48003;52.084;5.224;2023-01-29T00:33:52;27.5;;;19.2;;
36833;SDS011;48003;52.084;5.224;2023-01-29T00:37:07;25.3;;;17.0;;
36833;SDS011;48003;52.084;5.224;2023-01-29T00:38:45;25.6;;;18.11;;
36833;SDS011;48003;52.084;5.224;2023-01-29T00:40:22;21.6;;;16.5;;
36833;SDS011;48003;52.084;5.224;2023-01-29T00:46:09;23.2;;;17.2;;
36833;SDS011;48003;52.084;5.224;2023-01-29T00:47:46;22.7;;;15.9;;
36833;SDS011;48003;52.084;5.224;2023-01-29T00:49:24;23.2;;;17.0;;
36833;SDS011;48003;52.084;5.224;2023-01-29T00:51:01;23.2;;;16.61;;
36833;SDS011;48003;52.084;5.224;2023-01-29T00:52:40;23.3;;;17.11;;
36833;SDS011;48003;52.084;5.224;2023-01-29T00:55:54;24.2;;;16.4;;
36833;SDS011;48003;52.084;5.224;2023-01-29T00:57:31;24.4;;;17.2;;
36833;SDS011;48003;52.084;5.224;2023-01-29T00:59:10;25.8;;;17.3;;
36833;SDS011;48003;52.084;5.224;2023-01-29T01:03:29;23.9;;;16.7;;
36833;SDS011;48003;52.084;5.224;2023-01-29T01:05:07;25.2;;;17.7;;
36833;SDS011;48003;52.084;5.224;2023-01-29T01:06:51;22.4;;;16.4;;
36833;SDS011;48003;52.084;5.224;2023-01-29T01:10:56;24.0;;;17.3;;
36833;SDS011;48003;52.084;5.224;2023-01-29T01:12:34;24.4;;;18.11;;
36833;SDS011;48003;52.084;5.224;2023-01-29T01:14:10;25.3;;;17.7;;
36833;SDS011;48003;52.084;5.224;2023-01-29T01:15:48;25.3;;;17.8;;
36833;SDS011;48003;52.084;5.224;2023-01-29T01:19:01;27.7;;;19.11;;
36833;SDS011;48003;52.084;5.224;2023-01-29T01:20:39;25.1;;;17.8;;
36833;SDS011;48003;52.084;5.224;2023-01-29T01:22:16;25.1;;;17.61;;
36833;SDS011;48003;52.084;5.224;2023-01-29T01:25:29;26.6;;;17.11;;
36833;SDS011;48003;52.084;5.224;2023-01-29T01:27:06;26.5;;;18.61;;
36833;SDS011;48003;52.084;5.224;2023-01-29T01:28:43;24.1;;;18.0;;
36833;SDS011;48003;52.084;5.224;2023-01-29T01:30:19;25.5;;;17.41;;
36833;SDS011;48003;52.084;5.224;2023-01-29T01:33:36;23.2;;;16.9;;
36833;SDS011;48003;52.084;5.224;2023-01-29T01:35:14;25.0;;;17.61;;
36833;SDS011;48003;52.084;5.224;2023-01-29T01:36:51;23.0;;;16.7;;
36833;SDS011;48003;52.084;5.224;2023-01-29T01:40:12;23.5;;;16.11;;
36833;SDS011;48003;52.084;5.224;2023-01-29T01:41:53;23.8;;;15.8;;
36833;SDS011;48003;52.084;5.224;2023-01-29T01:43:45;22.5;;;16.3;;
36833;SDS011;48003;52.084;5.224;2023-01-29T01:45:24;22.9;;;16.4;;
36833;SDS011;48003;52.084;5.224;2023-01-29T01:47:04;23.2;;;16.7;;
36833;SDS011;48003;52.084;5.224;2023-01-29T01:50:21;21.2;;;15.9;;
36833;SDS011;48003;52.084;5.224;2023-01-29T01:52:02;23.3;;;16.11;;
36833;SDS011;48003;52.084;5.224;2023-01-29T01:53:40;22.3;;;16.0;;
36833;SDS011;48003;52.084;5.224;2023-01-29T01:57:09;23.6;;;15.6;;
36833;SDS011;48003;52.084;5.224;2023-01-29T01:58:51;22.1;;;15.5;;
36833;SDS011;48003;52.084;5.224;2023-01-29T02:00:31;22.0;;;15.9;;
36833;SDS011;48003;52.084;5.224;2023-01-29T02:10:29;24.2;;;16.3;;
36833;SDS011;48003;52.084;5.224;2023-01-29T02:12:12;24.2;;;16.3;;
36833;SDS011;48003;52.084;5.224;2023-01-29T02:15:29;23.5;;;16.7;;
36833;SDS011;48003;52.084;5.224;2023-01-29T02:17:07;22.2;;;16.4;;
36833;SDS011;48003;52.084;5.224;2023-01-29T02:18:47;22.8;;;16.61;;
36833;SDS011;48003;52.084;5.224;2023-01-29T02:22:05;24.2;;;16.4;;
36833;SDS011;48003;52.084;5.224;2023-01-29T02:24:04;23.3;;;16.9;;
36833;SDS011;48003;52.084;5.224;2023-01-29T02:26:19;26.3;;;17.0;;
36833;SDS011;48003;52.084;5.224;2023-01-29T02:28:23;23.3;;;17.11;;
36833;SDS011;48003;52.084;5.224;2023-01-29T02:30:14;23.8;;;17.3;;
36833;SDS011;48003;52.084;5.224;2023-01-29T02:32:02;25.5;;;17.91;;
36833;SDS011;48003;52.084;5.224;2023-01-29T02:33:52;25.4;;;17.7;;
36833;SDS011;48003;52.084;5.224;2023-01-29T02:35:48;24.8;;;17.3;;
36833;SDS011;48003;52.084;5.224;2023-01-29T02:37:35;24.4;;;17.91;;
36833;SDS011;48003;52.084;5.224;2023-01-29T02:41:06;24.1;;;16.5;;
36833;SDS011;48003;52.084;5.224;2023-01-29T02:42:52;23.9;;;16.7;;
36833;SDS011;48003;52.084;5.224;2023-01-29T02:44:37;25.9;;;18.11;;
36833;SDS011;48003;52.084;5.224;2023-01-29T02:46:18;26.4;;;17.91;;
36833;SDS011;48003;52.084;5.224;2023-01-29T02:48:04;26.5;;;18.91;;
36833;SDS011;48003;52.084;5.224;2023-01-29T02:51:25;23.1;;;17.5;;
36833;SDS011;48003;52.084;5.224;2023-01-29T02:53:12;25.3;;;18.11;;
36833;SDS011;48003;52.084;5.224;2023-01-29T02:54:53;26.1;;;18.61;;
36833;SDS011;48003;52.084;5.224;2023-01-29T02:56:36;28.5;;;19.3;;
36833;SDS011;48003;52.084;5.224;2023-01-29T02:58:22;23.7;;;17.7;;
36833;SDS011;48003;52.084;5.224;2023-01-29T03:01:50;26.0;;;18.0;;
36833;SDS011;48003;52.084;5.224;2023-01-29T03:03:33;25.7;;;17.8;;
36833;SDS011;48003;52.084;5.224;2023-01-29T03:05:17;25.7;;;18.11;;
36833;SDS011;48003;52.084;5.224;2023-01-29T03:07:02;26.3;;;18.8;;
36833;SDS011;48003;52.084;5.224;2023-01-29T03:08:45;27.9;;;19.91;;
36833;SDS011;48003;52.084;5.224;2023-01-29T03:12:18;26.9;;;19.41;;
36833;SDS011;48003;52.084;5.224;2023-01-29T03:14:10;28.4;;;20.3;;
36833;SDS011;48003;52.084;5.224;2023-01-29T03:15:54;27.4;;;19.91;;
36833;SDS011;48003;52.084;5.224;2023-01-29T03:17:39;26.2;;;19.5;;
36833;SDS011;48003;52.084;5.224;2023-01-29T03:19:22;29.8;;;20.7;;
36833;SDS011;48003;52.084;5.224;2023-01-29T03:21:50;28.1;;;20.5;;
36833;SDS011;48003;52.084;5.224;2023-01-29T03:32:13;29.3;;;19.11;;
36833;SDS011;48003;52.084;5.224;2023-01-29T03:33:57;27.4;;;18.5;;
36833;SDS011;48003;52.084;5.224;2023-01-29T03:37:32;28.2;;;20.5;;
36833;SDS011;48003;52.084;5.224;2023-01-29T03:39:15;28.2;;;20.3;;
36833;SDS011;48003;52.084;5.224;2023-01-29T03:40:54;28.7;;;20.0;;
36833;SDS011;48003;52.084;5.224;2023-01-29T03:42:37;28.2;;;20.2;;
36833;SDS011;48003;52.084;5.224;2023-01-29T03:44:28;29.7;;;20.7;;
36833;SDS011;48003;52.084;5.224;2023-01-29T03:48:03;29.2;;;21.1;;
36833;SDS011;48003;52.084;5.224;2023-01-29T03:49:50;31.2;;;22.1;;
36833;SDS011;48003;52.084;5.224;2023-01-29T03:51:36;29.8;;;21.2;;
36833;SDS011;48003;52.084;5.224;2023-01-29T03:53:22;32.8;;;22.1;;
36833;SDS011;48003;52.084;5.224;2023-01-29T03:55:08;30.8;;;21.9;;
36833;SDS011;48003;52.084;5.224;2023-01-29T03:56:53;30.3;;;21.3;;
36833;SDS011;48003;52.084;5.224;2023-01-29T04:00:22;33.0;;;23.0;;
36833;SDS011;48003;52.084;5.224;2023-01-29T04:02:04;29.7;;;22.1;;
36833;SDS011;48003;52.084;5.224;2023-01-29T04:03:46;31.5;;;21.0;;
36833;SDS011;48003;52.084;5.224;2023-01-29T04:05:30;28.8;;;20.9;;
36833;SDS011;48003;52.084;5.224;2023-01-29T04:07:14;31.7;;;21.1;;
36833;SDS011;48003;52.084;5.224;2023-01-29T04:10:38;30.9;;;21.5;;
36833;SDS011;48003;52.084;5.224;2023-01-29T04:12:19;29.2;;;21.5;;
36833;SDS011;48003;52.084;5.224;2023-01-29T04:14:02;30.6;;;22.0;;
36833;SDS011;48003;52.084;5.224;2023-01-29T04:15:43;31.0;;;20.9;;
36833;SDS011;48003;52.084;5.224;2023-01-29T04:19:09;30.5;;;22.4;;
36833;SDS011;48003;52.084;5.224;2023-01-29T04:20:47;31.1;;;20.8;;
36833;SDS011;48003;52.084;5.224;2023-01-29T04:22:26;33.3;;;22.0;;
36833;SDS011;48003;52.084;5.224;2023-01-29T04:24:07;30.9;;;22.1;;
36833;SDS011;48003;52.084;5.224;2023-01-29T04:27:43;30.5;;;21.4;;
36833;SDS011;48003;52.084;5.224;2023-01-29T04:29:35;31.6;;;22.1;;
36833;SDS011;48003;52.084;5.224;2023-01-29T04:31:22;32.71;;;22.3;;
36833;SDS011;48003;52.084;5.224;2023-01-29T04:33:05;31.9;;;22.2;;
36833;SDS011;48003;52.084;5.224;2023-01-29T04:34:56;31.5;;;21.8;;
36833;SDS011;48003;52.084;5.224;2023-01-29T04:36:40;29.7;;;21.2;;
36833;SDS011;48003;52.084;5.224;2023-01-29T04:40:22;33.9;;;21.8;;
36833;SDS011;48003;52.084;5.224;2023-01-29T04:42:10;32.1;;;21.7;;
36833;SDS011;48003;52.084;5.224;2023-01-29T04:43:57;28.0;;;20.3;;
36833;SDS011;48003;52.084;5.224;2023-01-29T04:45:40;31.8;;;22.3;;
36833;SDS011;48003;52.084;5.224;2023-01-29T04:47:32;30.7;;;20.9;;
36833;SDS011;48003;52.084;5.224;2023-01-29T04:49:18;31.8;;;22.6;;
36833;SDS011;48003;52.084;5.224;2023-01-29T04:52:51;35.1;;;23.0;;
36833;SDS011;48003;52.084;5.224;2023-01-29T04:54:41;32.21;;;22.3;;
36833;SDS011;48003;52.084;5.224;2023-01-29T04:57:15;32.9;;;23.3;;
36833;SDS011;48003;52.084;5.224;2023-01-29T04:58:58;30.5;;;22.1;;
36833;SDS011;48003;52.084;5.224;2023-01-29T05:00:42;30.8;;;22.0;;
36833;SDS011;48003;52.084;5.224;2023-01-29T05:02:21;31.5;;;22.1;;
36833;SDS011;48003;52.084;5.224;2023-01-29T05:04:01;31.9;;;22.3;;
36833;SDS011;48003;52.084;5.224;2023-01-29T05:07:23;30.5;;;22.5;;
36833;SDS011;48003;52.084;5.224;2023-01-29T05:09:04;32.5;;;22.8;;
36833;SDS011;48003;52.084;5.224;2023-01-29T05:10:42;30.0;;;22.1;;
36833;SDS011;48003;52.084;5.224;2023-01-29T05:12:20;33.71;;;23.2;;
36833;SDS011;48003;52.084;5.224;2023-01-29T05:15:43;29.5;;;20.5;;
36833;SDS011;48003;52.084;5.224;2023-01-29T05:17:24;29.2;;;21.6;;
36833;SDS011;48003;52.084;5.224;2023-01-29T05:19:02;28.2;;;21.6;;
36833;SDS011;48003;52.084;5.224;2023-01-29T05:20:40;29.6;;;21.8;;
36833;SDS011;48003;52.084;5.224;2023-01-29T05:24:08;30.5;;;21.8;;
36833;SDS011;48003;52.084;5.224;2023-01-29T05:25:46;27.4;;;21.2;;
36833;SDS011;48003;52.084;5.224;2023-01-29T05:28:28;29.3;;;21.5;;
36833;SDS011;48003;52.084;5.224;2023-01-29T05:30:06;29.5;;;22.0;;
36833;SDS011;48003;52.084;5.224;2023-01-29T05:31:45;29.6;;;22.2;;
36833;SDS011;48003;52.084;5.224;2023-01-29T05:33:22;30.5;;;21.7;;
36833;SDS011;48003;52.084;5.224;2023-01-29T05:36:39;29.7;;;22.0;;
36833;SDS011;48003;52.084;5.224;2023-01-29T05:38:16;30.5;;;22.2;;
36833;SDS011;48003;52.084;5.224;2023-01-29T05:39:54;30.5;;;21.2;;
36833;SDS011;48003;52.084;5.224;2023-01-29T05:41:32;29.2;;;20.6;;
36833;SDS011;48003;52.084;5.224;2023-01-29T05:44:52;28.6;;;21.8;;
36833;SDS011;48003;52.084;5.224;2023-01-29T05:46:28;29.1;;;21.5;;
36833;SDS011;48003;52.084;5.224;2023-01-29T05:48:05;28.6;;;21.6;;
36833;SDS011;48003;52.084;5.224;2023-01-29T05:51:19;30.2;;;21.9;;
36833;SDS011;48003;52.084;5.224;2023-01-29T05:52:56;31.9;;;22.4;;
36833;SDS011;48003;52.084;5.224;2023-01-29T05:54:32;30.7;;;21.8;;
36833;SDS011;48003;52.084;5.224;2023-01-29T05:56:09;31.8;;;22.6;;
36833;SDS011;48003;52.084;5.224;2023-01-29T05:59:22;29.4;;;21.1;;
36833;SDS011;48003;52.084;5.224;2023-01-29T06:01:06;29.0;;;20.5;;
36833;SDS011;48003;52.084;5.224;2023-01-29T06:02:45;29.5;;;21.1;;
36833;SDS011;48003;52.084;5.224;2023-01-29T06:04:21;27.9;;;21.1;;
36833;SDS011;48003;52.084;5.224;2023-01-29T06:07:33;30.8;;;21.9;;
36833;SDS011;48003;52.084;5.224;2023-01-29T06:09:10;29.1;;;21.3;;
36833;SDS011;48003;52.084;5.224;2023-01-29T06:10:47;31.1;;;20.7;;
36833;SDS011;48003;52.084;5.224;2023-01-29T06:14:02;29.1;;;21.4;;
36833;SDS011;48003;52.084;5.224;2023-01-29T06:15:39;28.5;;;21.0;;
36833;SDS011;48003;52.084;5.224;2023-01-29T06:20:31;28.9;;;21.1;;
36833;SDS011;48003;52.084;5.224;2023-01-29T06:22:08;27.1;;;20.8;;
36833;SDS011;48003;52.084;5.224;2023-01-29T06:23:45;28.6;;;21.0;;
36833;SDS011;48003;52.084;5.224;2023-01-29T06:25:22;25.6;;;19.7;;
36833;SDS011;48003;52.084;5.224;2023-01-29T06:28:34;28.8;;;20.9;;
36833;SDS011;48003;52.084;5.224;2023-01-29T06:30:11;29.3;;;20.11;;
36833;SDS011;48003;52.084;5.224;2023-01-29T06:31:48;30.8;;;20.3;;
36833;SDS011;48003;52.084;5.224;2023-01-29T06:35:01;29.5;;;20.3;;
36833;SDS011;48003;52.084;5.224;2023-01-29T06:36:40;28.4;;;20.41;;
36833;SDS011;48003;52.084;5.224;2023-01-29T06:38:17;29.1;;;20.6;;
36833;SDS011;48003;52.084;5.224;2023-01-29T06:41:30;28.7;;;21.0;;
36833;SDS011;48003;52.084;5.224;2023-01-29T06:43:06;26.8;;;18.91;;
36833;SDS011;48003;52.084;5.224;2023-01-29T06:44:43;26.6;;;19.41;;
36833;SDS011;48003;52.084;5.224;2023-01-29T06:46:19;27.2;;;19.7;;
36833;SDS011;48003;52.084;5.224;2023-01-29T06:49:33;25.5;;;18.91;;
36833;SDS011;48003;52.084;5.224;2023-01-29T06:51:10;25.9;;;19.8;;
36833;SDS011;48003;52.084;5.224;2023-01-29T06:52:47;29.5;;;20.7;;
36833;SDS011;48003;52.084;5.224;2023-01-29T06:55:59;27.6;;;19.61;;
36833;SDS011;48003;52.084;5.224;2023-01-29T06:57:36;26.4;;;20.2;;
36833;SDS011;48003;52.084;5.224;2023-01-29T06:59:13;27.6;;;19.0;;
36833;SDS011;48003;52.084;5.224;2023-01-29T07:00:50;26.7;;;19.41;;
36833;SDS011;48003;52.084;5.224;2023-01-29T07:04:04;26.1;;;19.0;;
36833;SDS011;48003;52.084;5.224;2023-01-29T07:05:41;26.1;;;18.8;;
36833;SDS011;48003;52.084;5.224;2023-01-29T07:07:18;25.7;;;18.7;;
36833;SDS011;48003;52.084;5.224;2023-01-29T07:10:31;27.7;;;20.0;;
36833;SDS011;48003;52.084;5.224;2023-01-29T07:12:07;24.7;;;19.2;;
36833;SDS011;48003;52.084;5.224;2023-01-29T07:13:45;27.5;;;20.0;;
36833;SDS011;48003;52.084;5.224;2023-01-29T07:16:58;28.6;;;20.2;;
36833;SDS011;48003;52.084;5.224;2023-01-29T07:18:36;28.6;;;19.61;;
36833;SDS011;48003;52.084;5.224;2023-01-29T07:20:12;28.2;;;19.3;;
36833;SDS011;48003;52.084;5.224;2023-01-29T07:21:48;26.8;;;19.7;;
36833;SDS011;48003;52.084;5.224;2023-01-29T07:25:01;31.0;;;20.3;;
36833;SDS011;48003;52.084;5.224;2023-01-29T07:26:38;25.6;;;19.41;;
36833;SDS011;48003;52.084;5.224;2023-01-29T07:28:15;26.9;;;19.11;;
36833;SDS011;48003;52.084;5.224;2023-01-29T07:31:29;28.0;;;19.2;;
36833;SDS011;48003;52.084;5.224;2023-01-29T07:33:07;26.0;;;19.3;;
36833;SDS011;48003;52.084;5.224;2023-01-29T07:34:45;24.4;;;18.8;;
36833;SDS011;48003;52.084;5.224;2023-01-29T07:37:59;24.5;;;18.3;;
36833;SDS011;48003;52.084;5.224;2023-01-29T07:39:35;24.5;;;18.3;;
36833;SDS011;48003;52.084;5.224;2023-01-29T07:41:11;24.2;;;18.0;;
36833;SDS011;48003;52.084;5.224;2023-01-29T07:42:49;25.7;;;17.8;;
36833;SDS011;48003;52.084;5.224;2023-01-29T07:46:02;25.2;;;18.5;;
36833;SDS011;48003;52.084;5.224;2023-01-29T07:47:39;26.9;;;18.91;;
36833;SDS011;48003;52.084;5.224;2023-01-29T07:49:15;25.2;;;18.7;;
36833;SDS011;48003;52.084;5.224;2023-01-29T07:52:31;26.0;;;18.8;;
36833;SDS011;48003;52.084;5.224;2023-01-29T07:54:09;25.8;;;18.41;;
36833;SDS011;48003;52.084;5.224;2023-01-29T07:55:45;27.1;;;18.0;;
36833;SDS011;48003;52.084;5.224;2023-01-29T07:57:22;26.4;;;18.5;;
36833;SDS011;48003;52.084;5.224;2023-01-29T08:00:36;28.8;;;19.61;;
36833;SDS011;48003;52.084;5.224;2023-01-29T08:02:13;26.8;;;19.2;;
36833;SDS011;48003;52.084;5.224;2023-01-29T08:03:50;26.6;;;18.7;;
36833;SDS011;48003;52.084;5.224;2023-01-29T08:07:05;24.5;;;18.2;;
36833;SDS011;48003;52.084;5.224;2023-01-29T08:08:42;25.7;;;18.91;;
36833;SDS011;48003;52.084;5.224;2023-01-29T08:10:19;26.4;;;18.2;;
36833;SDS011;48003;52.084;5.224;2023-01-29T08:13:33;27.6;;;18.5;;
36833;SDS011;48003;52.084;5.224;2023-01-29T08:15:10;29.7;;;19.61;;
36833;SDS011;48003;52.084;5.224;2023-01-29T08:16:47;23.7;;;18.61;;
36833;SDS011;48003;52.084;5.224;2023-01-29T08:18:24;26.9;;;18.2;;
36833;SDS011;48003;52.084;5.224;2023-01-29T08:21:39;24.0;;;18.0;;
36833;SDS011;48003;52.084;5.224;2023-01-29T08:23:15;25.4;;;19.0;;
36833;SDS011;48003;52.084;5.224;2023-01-29T08:24:52;24.4;;;18.41;;
36833;SDS011;48003;52.084;5.224;2023-01-29T08:28:05;25.3;;;18.41;;
36833;SDS011;48003;52.084;5.224;2023-01-29T08:29:42;27.4;;;19.11;;
36833;SDS011;48003;52.084;5.224;2023-01-29T08:31:19;24.6;;;18.2;;
36833;SDS011;48003;52.084;5.224;2023-01-29T08:32:56;23.7;;;18.11;;
36833;SDS011;48003;52.084;5.224;2023-01-29T08:36:10;24.9;;;17.7;;
36833;SDS011;48003;52.084;5.224;2023-01-29T08:37:54;24.0;;;17.7;;
36833;SDS011;48003;52.084;5.224;2023-01-29T08:39:31;25.4;;;18.3;;
36833;SDS011;48003;52.084;5.224;2023-01-29T08:42:44;24.5;;;18.3;;
36833;SDS011;48003;52.084;5.224;2023-01-29T08:44:20;26.0;;;18.41;;
36833;SDS011;48003;52.084;5.224;2023-01-29T08:45:58;25.8;;;18.5;;
36833;SDS011;48003;52.084;5.224;2023-01-29T08:47:35;27.1;;;18.11;;
36833;SDS011;48003;52.084;5.224;2023-01-29T08:50:48;23.0;;;17.41;;
36833;SDS011;48003;52.084;5.224;2023-01-29T08:52:24;25.6;;;18.3;;
36833;SDS011;48003;52.084;5.224;2023-01-29T08:54:00;24.8;;;18.41;;
36833;SDS011;48003;52.084;5.224;2023-01-29T08:57:15;26.7;;;18.61;;
36833;SDS011;48003;52.084;5.224;2023-01-29T08:58:52;24.6;;;17.3;;
36833;SDS011;48003;52.084;5.224;2023-01-29T09:00:29;23.8;;;17.61;;
36833;SDS011;48003;52.084;5.224;2023-01-29T09:03:43;27.2;;;18.5;;
36833;SDS011;48003;52.084;5.224;2023-01-29T09:05:19;27.8;;;18.7;;
36833;SDS011;48003;52.084;5.224;2023-01-29T09:06:56;25.3;;;18.5;;
36833;SDS011;48003;52.084;5.224;2023-01-29T09:08:34;25.5;;;17.91;;
36833;SDS011;48003;52.084;5.224;2023-01-29T09:11:48;25.4;;;17.91;;
36833;SDS011;48003;52.084;5.224;2023-01-29T09:13:24;26.4;;;18.5;;
36833;SDS011;48003;52.084;5.224;2023-01-29T09:15:01;26.0;;;18.91;;
36833;SDS011;48003;52.084;5.224;2023-01-29T09:18:15;23.8;;;18.0;;
36833;SDS011;48003;52.084;5.224;2023-01-29T09:19:52;23.1;;;17.41;;
36833;SDS011;48003;52.084;5.224;2023-01-29T09:21:29;24.5;;;17.8;;
36833;SDS011;48003;52.084;5.224;2023-01-29T09:23:06;24.7;;;17.61;;
36833;SDS011;48003;52.084;5.224;2023-01-29T09:26:21;23.1;;;17.2;;
36833;SDS011;48003;52.084;5.224;2023-01-29T09:27:58;25.2;;;17.7;;
36833;SDS011;48003;52.084;5.224;2023-01-29T09:29:35;24.9;;;18.41;;
36833;SDS011;48003;52.084;5.224;2023-01-29T09:32:49;24.7;;;17.2;;
36833;SDS011;48003;52.084;5.224;2023-01-29T09:34:26;25.2;;;18.11;;
36833;SDS011;48003;52.084;5.224;2023-01-29T09:36:02;26.3;;;18.7;;
36833;SDS011;48003;52.084;5.224;2023-01-29T09:39:16;24.8;;;18.2;;
36833;SDS011;48003;52.084;5.224;2023-01-29T09:40:54;28.0;;;19.0;;
36833;SDS011;48003;52.084;5.224;2023-01-29T09:42:42;26.1;;;18.91;;
36833;SDS011;48003;52.084;5.224;2023-01-29T09:44:29;24.5;;;18.0;;
36833;SDS011;48003;52.084;5.224;2023-01-29T09:46:29;25.2;;;18.41;;
36833;SDS011;48003;52.084;5.224;2023-01-29T09:48:13;25.5;;;17.61;;
36833;SDS011;48003;52.084;5.224;2023-01-29T09:51:33;26.2;;;18.0;;
36833;SDS011;48003;52.084;5.224;2023-01-29T09:53:16;26.3;;;18.3;;
36833;SDS011;48003;52.084;5.224;2023-01-29T09:54:58;27.5;;;19.41;;
36833;SDS011;48003;52.084;5.224;2023-01-29T09:56:42;25.9;;;18.61;;
36833;SDS011;48003;52.084;5.224;2023-01-29T10:00:04;29.0;;;19.2;;
36833;SDS011;48003;52.084;5.224;2023-01-29T10:01:43;26.7;;;18.2;;
36833;SDS011;48003;52.084;5.224;2023-01-29T10:03:35;26.3;;;19.0;;
36833;SDS011;48003;52.084;5.224;2023-01-29T10:07:31;26.5;;;18.41;;
36833;SDS011;48003;52.084;5.224;2023-01-29T10:09:56;27.6;;;19.61;;
36833;SDS011;48003;52.084;5.224;2023-01-29T10:11:55;26.1;;;18.91;;
36833;SDS011;48003;52.084;5.224;2023-01-29T10:13:47;27.3;;;19.5;;
36833;SDS011;48003;52.084;5.224;2023-01-29T10:15:41;30.0;;;19.3;;
36833;SDS011;48003;52.084;5.224;2023-01-29T10:23:01;27.2;;;19.3;;
36833;SDS011;48003;52.084;5.224;2023-01-29T10:24:55;26.2;;;19.91;;
36833;SDS011;48003;52.084;5.224;2023-01-29T10:26:36;25.4;;;19.5;;
36833;SDS011;48003;52.084;5.224;2023-01-29T10:28:16;28.4;;;19.91;;
36833;SDS011;48003;52.084;5.224;2023-01-29T10:31:34;31.6;;;20.6;;
36833;SDS011;48003;52.084;5.224;2023-01-29T10:33:19;28.9;;;20.6;;
36833;SDS011;48003;52.084;5.224;2023-01-29T10:35:05;30.5;;;20.6;;
36833;SDS011;48003;52.084;5.224;2023-01-29T10:36:58;30.6;;;20.2;;
36833;SDS011;48003;52.084;5.224;2023-01-29T10:38:38;29.3;;;20.3;;
36833;SDS011;48003;52.084;5.224;2023-01-29T10:42:01;28.0;;;21.4;;
36833;SDS011;48003;52.084;5.224;2023-01-29T10:43:57;29.3;;;20.8;;
36833;SDS011;48003;52.084;5.224;2023-01-29T10:45:48;28.0;;;20.2;;
36833;SDS011;48003;52.084;5.224;2023-01-29T10:48:23;28.4;;;20.9;;
36833;SDS011;48003;52.084;5.224;2023-01-29T10:50:25;30.3;;;22.1;;
36833;SDS011;48003;52.084;5.224;2023-01-29T10:52:25;27.4;;;20.9;;
36833;SDS011;48003;52.084;5.224;2023-01-29T10:54:19;36.21;;;22.5;;
36833;SDS011;48003;52.084;5.224;2023-01-29T10:56:16;29.3;;;20.7;;
36833;SDS011;48003;52.084;5.224;2023-01-29T10:58:06;33.4;;;21.8;;
36833;SDS011;48003;52.084;5.224;2023-01-29T10:59:58;31.7;;;21.5;;
36833;SDS011;48003;52.084;5.224;2023-01-29T11:01:44;31.5;;;21.6;;
36833;SDS011;48003;52.084;5.224;2023-01-29T11:05:00;31.5;;;21.6;;
36833;SDS011;48003;52.084;5.224;2023-01-29T11:06:37;31.4;;;21.7;;
36833;SDS011;48003;52.084;5.224;2023-01-29T11:08:15;30.1;;;21.4;;
36833;SDS011;48003;52.084;5.224;2023-01-29T11:09:56;29.3;;;21.5;;
36833;SDS011;48003;52.084;5.224;2023-01-29T11:13:18;30.0;;;21.3;;
36833;SDS011;48003;52.084;5.224;2023-01-29T11:15:13;30.5;;;22.4;;
36833;SDS011;48003;52.084;5.224;2023-01-29T11:16:55;31.0;;;22.1;;
36833;SDS011;48003;52.084;5.224;2023-01-29T11:18:47;29.3;;;21.7;;
36833;SDS011;48003;52.084;5.224;2023-01-29T11:20:29;31.7;;;22.8;;
36833;SDS011;48003;52.084;5.224;2023-01-29T11:23:49;32.6;;;22.3;;
36833;SDS011;48003;52.084;5.224;2023-01-29T11:25:39;34.31;;;23.0;;
36833;SDS011;48003;52.084;5.224;2023-01-29T11:27:31;31.7;;;23.1;;
36833;SDS011;48003;52.084;5.224;2023-01-29T11:29:40;35.31;;;24.5;;
36833;SDS011;48003;52.084;5.224;2023-01-29T11:31:21;34.0;;;24.6;;
36833;SDS011;48003;52.084;5.224;2023-01-29T11:33:08;36.81;;;24.5;;
36833;SDS011;48003;52.084;5.224;2023-01-29T11:36:39;36.9;;;26.1;;
36833;SDS011;48003;52.084;5.224;2023-01-29T11:38:17;34.4;;;25.5;;
36833;SDS011;48003;52.084;5.224;2023-01-29T11:40:00;36.5;;;25.2;;
36833;SDS011;48003;52.084;5.224;2023-01-29T11:42:04;35.31;;;24.6;;
36833;SDS011;48003;52.084;5.224;2023-01-29T11:43:40;35.5;;;24.0;;
36833;SDS011;48003;52.084;5.224;2023-01-29T11:47:09;35.21;;;24.8;;
36833;SDS011;48003;52.084;5.224;2023-01-29T11:48:55;36.5;;;25.2;;
36833;SDS011;48003;52.084;5.224;2023-01-29T11:50:32;36.31;;;24.7;;
36833;SDS011;48003;52.084;5.224;2023-01-29T11:52:09;34.6;;;24.9;;
36833;SDS011;48003;52.084;5.224;2023-01-29T11:53:51;33.5;;;25.0;;
36833;SDS011;48003;52.084;5.224;2023-01-29T11:57:18;34.21;;;24.5;;
36833;SDS011;48003;52.084;5.224;2023-01-29T11:59:13;36.4;;;26.3;;
36833;SDS011;48003;52.084;5.224;2023-01-29T12:01:07;38.6;;;26.3;;
36833;SDS011;48003;52.084;5.224;2023-01-29T12:02:46;35.9;;;25.4;;
36833;SDS011;48003;52.084;5.224;2023-01-29T12:04:28;35.6;;;26.2;;
36833;SDS011;48003;52.084;5.224;2023-01-29T12:07:53;36.0;;;25.7;;
36833;SDS011;48003;52.084;5.224;2023-01-29T12:09:33;38.21;;;26.8;;
36833;SDS011;48003;52.084;5.224;2023-01-29T12:11:13;38.0;;;27.2;;
36833;SDS011;48003;52.084;5.224;2023-01-29T12:13:03;36.5;;;26.4;;
36833;SDS011;48003;52.084;5.224;2023-01-29T12:15:02;37.71;;;25.7;;
36833;SDS011;48003;52.084;5.224;2023-01-29T12:17:12;35.0;;;24.9;;
36833;SDS011;48003;52.084;5.224;2023-01-29T12:18:57;35.0;;;24.9;;
36833;SDS011;48003;52.084;5.224;2023-01-29T12:22:26;38.21;;;26.8;;
36833;SDS011;48003;52.084;5.224;2023-01-29T12:24:23;37.81;;;26.9;;
36833;SDS011;48003;52.084;5.224;2023-01-29T12:26:10;36.31;;;26.1;;
36833;SDS011;48003;52.084;5.224;2023-01-29T12:27:52;36.4;;;27.0;;
36833;SDS011;48003;52.084;5.224;2023-01-29T12:29:36;37.0;;;25.9;;
36833;SDS011;48003;52.084;5.224;2023-01-29T12:33:12;36.6;;;26.8;;
36833;SDS011;48003;52.084;5.224;2023-01-29T12:35:00;35.1;;;25.8;;
36833;SDS011;48003;52.084;5.224;2023-01-29T12:36:43;34.6;;;25.5;;
36833;SDS011;48003;52.084;5.224;2023-01-29T12:38:26;34.21;;;25.9;;
36833;SDS011;48003;52.084;5.224;2023-01-29T12:40:09;36.1;;;25.8;;
36833;SDS011;48003;52.084;5.224;2023-01-29T12:43:32;36.31;;;27.2;;
36833;SDS011;48003;52.084;5.224;2023-01-29T12:45:15;37.5;;;27.6;;
36833;SDS011;48003;52.084;5.224;2023-01-29T12:46:55;35.6;;;26.8;;
36833;SDS011;48003;52.084;5.224;2023-01-29T12:48:36;36.21;;;27.3;;
36833;SDS011;48003;52.084;5.224;2023-01-29T12:50:18;36.21;;;27.3;;
36833;SDS011;48003;52.084;5.224;2023-01-29T12:53:44;37.5;;;26.7;;
36833;SDS011;48003;52.084;5.224;2023-01-29T12:55:28;34.0;;;26.1;;
36833;SDS011;48003;52.084;5.224;2023-01-29T12:57:15;38.21;;;26.7;;
36833;SDS011;48003;52.084;5.224;2023-01-29T12:58:59;36.21;;;26.4;;
36833;SDS011;48003;52.084;5.224;2023-01-29T13:00:41;37.9;;;27.0;;